Time;durP1;ratioP1;P1;durP2;ratioP2;P2;SDS_P1;SDS_P2;PMS_P1;PMS_P2;Temp;Humidity;BMP_temperature;BMP_pressure;BME280_temperature;BME280_humidity;BME280_pressure;Samples;Min_cycle;Max_cycle;Signal;HPM_P1;HPM_P2
2021/08/01 05:18:36;;;;;;;7.05;5.90;;;18.50;99.90;;;;;;3641567;29;20061;-77
2021/08/01 05:21:02;;;;;;;8.80;6.10;;;18.70;99.90;;;;;;4850800;29;20057;-77
2021/08/01 05:26:50;;;;;;;9.70;6.18;;;18.70;99.90;;;;;;4854589;29;20060;-77
2021/08/01 05:29:16;;;;;;;11.07;6.47;;;18.80;99.90;;;;;;4855146;29;20404;-77
2021/08/01 05:31:41;;;;;;;9.30;6.75;;;18.70;99.90;;;;;;4851917;29;20033;-77
2021/08/01 05:34:07;;;;;;;11.73;7.15;;;18.80;99.90;;;;;;4852864;29;20625;-78
2021/08/01 05:36:33;;;;;;;11.23;7.07;;;19.00;99.90;;;;;;4854302;29;20493;-78
2021/08/01 05:38:58;;;;;;;13.50;7.55;;;19.00;99.90;;;;;;4852235;29;20389;-78
2021/08/01 05:41:24;;;;;;;8.50;6.80;;;19.10;99.90;;;;;;4854043;29;20413;-78
2021/08/01 05:43:50;;;;;;;8.55;5.75;;;19.30;99.90;;;;;;4853286;29;20856;-78
2021/08/01 05:46:16;;;;;;;7.25;5.63;;;19.00;99.90;;;;;;4853633;29;20046;-77
2021/08/01 05:48:42;;;;;;;8.88;5.53;;;18.90;99.90;;;;;;4852005;29;20049;-78
2021/08/01 05:51:08;;;;;;;8.70;6.07;;;19.00;99.90;;;;;;4843662;29;20037;-78
2021/08/01 05:53:34;;;;;;;9.02;5.88;;;19.10;99.90;;;;;;4852304;29;20042;-77
2021/08/01 05:56:10;;;;;;;7.80;5.95;;;19.20;99.90;;;;;;4835001;29;20073;-77
2021/08/01 05:58:37;;;;;;;8.82;5.88;;;19.30;99.90;;;;;;4851764;29;20041;-77
2021/08/01 06:01:13;;;;;;;9.95;5.82;;;19.30;99.90;;;;;;4853252;29;20132;-78
2021/08/01 06:03:40;;;;;;;9.45;5.07;;;19.30;99.90;;;;;;4837107;29;20052;-77
2021/08/01 06:06:10;;;;;;;6.63;4.57;;;19.30;99.90;;;;;;4853947;29;20049;-78
2021/08/01 06:08:35;;;;;;;9.98;5.47;;;19.40;99.90;;;;;;4850340;29;20038;-78
2021/08/01 06:11:04;;;;;;;9.38;6.35;;;19.50;99.90;;;;;;4850111;29;20121;-78
2021/08/01 06:13:29;;;;;;;8.85;6.35;;;19.60;99.90;;;;;;4850003;29;20049;-77
2021/08/01 06:15:55;;;;;;;10.13;6.75;;;19.80;99.90;;;;;;4851243;29;20448;-78
2021/08/01 06:18:21;;;;;;;8.57;6.40;;;19.80;99.90;;;;;;4849697;29;20049;-78
2021/08/01 06:20:46;;;;;;;8.55;6.68;;;19.70;99.90;;;;;;4848637;29;20056;-78
2021/08/01 06:23:12;;;;;;;13.85;7.00;;;19.70;99.90;;;;;;4850214;29;20033;-77
2021/08/01 06:25:38;;;;;;;9.43;5.68;;;19.80;99.90;;;;;;4834695;29;20064;-77
2021/08/01 06:28:05;;;;;;;7.43;5.03;;;19.60;99.90;;;;;;4849352;29;20511;-77
2021/08/01 06:30:31;;;;;;;7.03;5.00;;;19.60;99.90;;;;;;4851675;29;20074;-78
2021/08/01 06:32:56;;;;;;;7.10;4.78;;;19.70;99.90;;;;;;4849594;29;20080;-77
2021/08/01 06:35:22;;;;;;;8.00;5.65;;;19.70;99.90;;;;;;4851194;29;20034;-78
2021/08/01 06:37:48;;;;;;;7.55;5.95;;;19.90;99.90;;;;;;4850494;29;20509;-77
2021/08/01 06:40:16;;;;;;;9.07;6.13;;;20.10;99.90;;;;;;4851318;29;20034;-78
2021/08/01 06:42:42;;;;;;;7.50;6.13;;;20.00;99.90;;;;;;4852399;29;20042;-77
2021/08/01 06:45:08;;;;;;;12.57;7.88;;;20.00;99.90;;;;;;4851518;29;20030;-77
2021/08/01 06:47:34;;;;;;;9.38;7.28;;;20.00;99.90;;;;;;4853842;29;20049;-78
2021/08/01 06:50:00;;;;;;;11.45;7.68;;;20.20;99.90;;;;;;4852770;29;20048;-78
2021/08/01 06:52:26;;;;;;;15.18;8.63;;;20.40;99.90;;;;;;4852519;29;21273;-78
2021/08/01 06:54:51;;;;;;;10.20;7.53;;;20.30;99.90;;;;;;4853108;29;20046;-78
2021/08/01 06:57:17;;;;;;;10.60;8.25;;;20.20;99.90;;;;;;4851136;29;20053;-78
2021/08/01 06:59:43;;;;;;;10.05;7.75;;;20.00;99.90;;;;;;4852425;29;20054;-78
2021/08/01 07:02:08;;;;;;;10.13;6.85;;;19.90;99.90;;;;;;4851044;29;20061;-78
2021/08/01 07:04:34;;;;;;;10.63;8.00;;;19.90;99.90;;;;;;4854334;29;20070;-78
2021/08/01 07:07:00;;;;;;;10.00;7.10;;;20.10;99.90;;;;;;4854269;29;20049;-78
2021/08/01 07:09:25;;;;;;;11.25;8.30;;;20.20;99.90;;;;;;4853566;29;20053;-78
2021/08/01 07:11:52;;;;;;;9.98;7.55;;;20.50;99.90;;;;;;4850012;29;20120;-78
2021/08/01 07:14:17;;;;;;;11.13;6.68;;;20.50;99.90;;;;;;4851527;29;20041;-78
2021/08/01 07:16:45;;;;;;;10.75;7.13;;;20.50;99.90;;;;;;4851646;29;20574;-79
2021/08/01 07:19:11;;;;;;;10.23;6.50;;;20.60;99.90;;;;;;4868960;29;20085;-78
2021/08/01 07:21:37;;;;;;;8.85;6.50;;;20.90;99.90;;;;;;4833101;29;20046;-77
2021/08/01 07:24:03;;;;;;;12.52;8.13;;;21.00;99.90;;;;;;4851374;29;20494;-77
2021/08/01 07:26:29;;;;;;;8.52;6.72;;;20.90;99.90;;;;;;4853658;29;20541;-77
2021/08/01 07:28:54;;;;;;;11.63;8.25;;;20.50;99.90;;;;;;4856067;29;20049;-78
2021/08/01 07:31:20;;;;;;;12.85;9.10;;;20.30;99.90;;;;;;4856339;29;20053;-77
2021/08/01 07:33:47;;;;;;;8.35;6.78;;;20.10;99.90;;;;;;4852176;29;20129;-77
2021/08/01 07:36:12;;;;;;;10.38;7.50;;;19.90;99.90;;;;;;4853616;29;20070;-77
2021/08/01 07:38:38;;;;;;;11.68;8.55;;;19.90;99.90;;;;;;4856043;29;20045;-77
2021/08/01 07:41:04;;;;;;;9.85;8.05;;;20.70;99.90;;;;;;4837724;29;20424;-77
2021/08/01 07:43:29;;;;;;;9.70;7.22;;;21.60;99.90;;;;;;4854334;29;20057;-78
2021/08/01 07:45:55;;;;;;;10.45;6.28;;;23.80;99.90;;;;;;4856637;29;20585;-77
2021/08/01 07:48:21;;;;;;;6.75;4.60;;;25.90;99.90;;;;;;4853555;29;20488;-77
2021/08/01 07:50:46;;;;;;;9.73;5.82;;;26.80;99.90;;;;;;4854760;29;20038;-77
2021/08/01 07:53:12;;;;;;;9.02;5.88;;;26.80;99.90;;;;;;4854684;29;20458;-77
2021/08/01 07:55:38;;;;;;;10.45;5.57;;;27.30;99.90;;;;;;4855177;29;20389;-77
2021/08/01 07:58:03;;;;;;;7.15;3.90;;;27.20;99.90;;;;;;4850640;29;20052;-76
2021/08/01 08:00:30;;;;;;;7.45;4.95;;;24.40;99.90;;;;;;4847016;29;20042;-77
2021/08/01 08:02:55;;;;;;;7.10;4.13;;;23.10;99.90;;;;;;4854944;29;20576;-76
2021/08/01 08:05:21;;;;;;;8.48;4.18;;;22.80;99.90;;;;;;4861461;29;20037;-76
2021/08/01 08:07:47;;;;;;;6.07;3.78;;;22.70;99.90;;;;;;4858765;29;20404;-78
2021/08/01 08:10:13;;;;;;;9.10;3.90;;;22.50;99.90;;;;;;4858960;29;20054;-77
2021/08/01 08:12:38;;;;;;;7.97;4.88;;;22.10;99.90;;;;;;4847652;29;20594;-76
2021/08/01 08:15:06;;;;;;;6.90;4.10;;;21.80;99.90;;;;;;4847631;29;20050;-77
2021/08/01 08:17:33;;;;;;;10.70;5.50;;;21.40;99.90;;;;;;4844178;29;20057;-74
2021/08/01 08:20:01;;;;;;;6.82;5.00;;;21.10;99.90;;;;;;4854385;29;20140;-77
2021/08/01 08:22:27;;;;;;;6.50;4.57;;;21.10;99.90;;;;;;4853227;29;20029;-77
2021/08/01 08:24:53;;;;;;;9.68;5.22;;;21.20;99.90;;;;;;4842375;29;20075;-77
2021/08/01 08:27:18;;;;;;;12.10;5.40;;;21.30;99.90;;;;;;4848863;29;20037;-77
2021/08/01 08:29:44;;;;;;;6.65;4.93;;;21.40;99.90;;;;;;4849291;29;20063;-76
2021/08/01 08:32:10;;;;;;;8.38;4.97;;;21.40;99.90;;;;;;4847868;29;20120;-77
2021/08/01 08:34:36;;;;;;;7.03;4.78;;;21.50;99.90;;;;;;4838611;29;20517;-76
2021/08/01 08:37:02;;;;;;;7.95;4.90;;;21.40;99.90;;;;;;4842438;29;20037;-76
2021/08/01 08:39:28;;;;;;;7.47;5.30;;;21.40;99.90;;;;;;4835786;29;20124;-78
2021/08/01 08:41:58;;;;;;;10.88;5.50;;;21.50;99.90;;;;;;4853968;29;20054;-78
2021/08/01 08:44:24;;;;;;;8.02;5.60;;;21.40;99.90;;;;;;4852051;29;20055;-80
2021/08/01 08:46:53;;;;;;;8.18;5.78;;;21.10;99.90;;;;;;4853277;29;20049;-80
2021/08/01 08:49:21;;;;;;;11.88;6.43;;;20.90;99.90;;;;;;4851320;29;20101;-79
2021/08/01 08:51:48;;;;;;;9.32;5.25;;;20.70;99.90;;;;;;4844397;29;20049;-78
2021/08/01 08:54:23;;;;;;;9.68;5.95;;;20.50;99.90;;;;;;4843250;29;20041;-79
2021/08/01 08:56:50;;;;;;;11.60;6.72;;;20.30;99.90;;;;;;4851616;29;20059;-79
2021/08/01 08:59:19;;;;;;;12.85;7.20;;;20.30;99.90;;;;;;4836986;29;20045;-78
2021/08/01 09:01:45;;;;;;;11.15;7.78;;;20.30;99.90;;;;;;4829886;29;20045;-80
2021/08/01 09:04:11;;;;;;;20.98;9.55;;;20.40;99.90;;;;;;4853423;29;20053;-79
2021/08/01 09:06:37;;;;;;;10.63;6.90;;;20.30;99.90;;;;;;4851850;29;20041;-80
2021/08/01 09:09:03;;;;;;;9.63;6.40;;;20.20;99.90;;;;;;4852935;29;20599;-80
2021/08/01 09:11:29;;;;;;;10.15;6.28;;;20.20;99.90;;;;;;4844860;29;20132;-79
2021/08/01 09:13:57;;;;;;;11.95;6.93;;;20.00;99.90;;;;;;4854551;29;20638;-79
2021/08/01 09:16:51;;;;;;;15.32;8.05;;;19.90;99.90;;;;;;4831800;29;20057;-80
2021/08/01 09:19:25;;;;;;;9.25;5.70;;;19.80;99.90;;;;;;4853728;29;20085;-79
2021/08/01 09:21:52;;;;;;;15.20;6.75;;;19.80;99.90;;;;;;4848924;29;20045;-79
2021/08/01 09:24:18;;;;;;;11.93;5.80;;;19.70;99.90;;;;;;4840089;29;20121;-79
2021/08/01 09:43:56;;;;;;;6.18;4.35;;;19.40;99.90;;;;;;4845542;29;20061;-76
2021/08/01 09:46:46;;;;;;;6.63;4.03;;;19.50;99.90;;;;;;4839752;29;20034;-77
2021/08/01 09:49:17;;;;;;;5.63;3.80;;;19.60;99.90;;;;;;4855798;29;20358;-77
2021/08/01 09:51:56;;;;;;;8.90;4.13;;;19.50;99.90;;;;;;4854069;29;20663;-76
2021/08/01 09:54:24;;;;;;;12.13;4.28;;;19.70;99.90;;;;;;4849808;29;20125;-77
2021/08/01 09:57:01;;;;;;;7.55;4.78;;;20.10;99.90;;;;;;4856092;29;20064;-77
2021/08/01 09:59:28;;;;;;;5.78;3.65;;;20.20;99.90;;;;;;4851182;29;20405;-77
2021/08/01 10:01:59;;;;;;;6.65;4.03;;;20.00;99.90;;;;;;4856026;29;20128;-76
2021/08/01 10:04:30;;;;;;;5.50;3.60;;;19.90;99.90;;;;;;4855046;29;20040;-76
2021/08/01 10:07:04;;;;;;;6.20;3.38;;;20.00;99.90;;;;;;4855627;29;20038;-77
2021/08/01 10:09:30;;;;;;;4.97;3.55;;;20.10;99.90;;;;;;4854000;29;20052;-77
2021/08/01 10:11:56;;;;;;;10.15;4.18;;;20.00;99.90;;;;;;4852779;29;20037;-77
2021/08/01 10:14:23;;;;;;;9.27;4.38;;;20.10;99.90;;;;;;4847291;29;20038;-76
2021/08/01 10:16:49;;;;;;;5.82;3.40;;;20.20;99.90;;;;;;4836461;29;20414;-77
2021/08/01 10:19:15;;;;;;;8.65;3.38;;;20.20;99.90;;;;;;4847238;29;20616;-77
2021/08/01 10:21:47;;;;;;;8.48;4.10;;;20.30;99.90;;;;;;4853679;29;20045;-76
2021/08/01 10:24:16;;;;;;;5.88;3.50;;;20.30;99.90;;;;;;4853654;29;20065;-81
2021/08/01 10:26:45;;;;;;;5.10;3.42;;;20.20;99.90;;;;;;4854041;29;20076;-77
2021/08/01 10:29:12;;;;;;;7.20;3.95;;;20.10;99.90;;;;;;4854134;29;20521;-78
2021/08/01 10:31:48;;;;;;;6.97;3.90;;;19.90;99.90;;;;;;4854197;29;20487;-76
2021/08/01 10:34:24;;;;;;;6.00;3.50;;;19.80;99.90;;;;;;4854052;29;20038;-77
2021/08/01 10:36:53;;;;;;;7.88;3.90;;;19.80;99.90;;;;;;4852496;29;20582;-74
2021/08/01 10:39:21;;;;;;;5.15;3.38;;;19.70;99.90;;;;;;4848803;29;20048;-74
2021/08/01 10:41:48;;;;;;;7.13;3.60;;;19.70;99.90;;;;;;4851860;29;20455;-76
2021/08/01 10:44:14;;;;;;;8.85;3.85;;;19.80;99.90;;;;;;4850615;29;20045;-76
2021/08/01 10:46:42;;;;;;;7.43;4.18;;;19.80;99.90;;;;;;4841944;29;20045;-77
2021/08/01 10:49:11;;;;;;;7.38;4.38;;;19.80;99.90;;;;;;4851858;29;21129;-76
2021/08/01 10:51:38;;;;;;;5.95;4.10;;;19.90;99.90;;;;;;4850603;29;20735;-76
2021/08/01 10:54:24;;;;;;;8.68;4.65;;;19.80;99.90;;;;;;4850177;29;20044;-80
2021/08/01 10:57:15;;;;;;;6.50;4.47;;;19.80;99.90;;;;;;4850548;29;20050;-84
2021/08/01 10:59:44;;;;;;;6.07;4.28;;;19.80;99.90;;;;;;4834003;29;20415;-77
2021/08/01 11:02:15;;;;;;;6.28;4.15;;;19.80;99.90;;;;;;4854077;29;20152;-78
2021/08/01 11:04:46;;;;;;;7.82;5.45;;;19.80;99.90;;;;;;4855144;29;20041;-76
2021/08/01 11:07:12;;;;;;;6.78;4.53;;;20.00;99.90;;;;;;4855734;29;20042;-76
2021/08/01 11:09:38;;;;;;;7.18;4.68;;;20.00;99.90;;;;;;4855483;29;20626;-78
2021/08/01 11:12:19;;;;;;;6.18;4.85;;;20.00;99.90;;;;;;4855452;29;20040;-78
2021/08/01 11:14:46;;;;;;;13.55;5.05;;;20.00;99.90;;;;;;4839160;29;20449;-77
2021/08/01 11:17:12;;;;;;;10.25;4.25;;;19.90;99.90;;;;;;4854291;29;20438;-75
2021/08/01 11:19:37;;;;;;;10.52;4.88;;;19.80;99.90;;;;;;4855373;29;20080;-76
2021/08/01 11:22:04;;;;;;;6.85;4.60;;;19.80;99.90;;;;;;4855506;29;20111;-77
2021/08/01 11:24:29;;;;;;;6.63;4.15;;;19.60;99.90;;;;;;4831423;29;20046;-77
2021/08/01 11:27:04;;;;;;;5.35;3.85;;;19.60;99.90;;;;;;4820225;29;20074;-77
2021/08/01 11:29:30;;;;;;;6.50;2.85;;;19.50;99.90;;;;;;4837513;29;20489;-78
2021/08/01 11:32:07;;;;;;;6.30;4.03;;;19.40;99.90;;;;;;4854158;29;20048;-77
2021/08/01 11:34:33;;;;;;;8.27;4.00;;;19.40;99.90;;;;;;4853358;29;20404;-77
2021/08/01 11:37:22;;;;;;;6.20;3.03;;;19.50;99.90;;;;;;4852936;29;20060;-77
2021/08/01 11:40:03;;;;;;;7.47;3.63;;;19.40;99.90;;;;;;4841372;29;20110;-76
2021/08/01 11:42:29;;;;;;;6.07;2.90;;;19.50;99.90;;;;;;4845502;29;20041;-77
2021/08/01 11:45:00;;;;;;;4.80;3.28;;;19.60;99.90;;;;;;4854954;29;20038;-77
2021/08/01 11:47:28;;;;;;;6.47;3.47;;;19.60;99.90;;;;;;4840011;29;20051;-77
2021/08/01 11:49:54;;;;;;;6.32;3.63;;;19.50;99.90;;;;;;4846010;29;20622;-77
2021/08/01 11:52:44;;;;;;;5.63;3.47;;;19.90;99.90;;;;;;4840230;29;20046;-77
2021/08/01 11:55:15;;;;;;;4.90;2.50;;;20.60;99.90;;;;;;4854684;29;20041;-78
2021/08/01 11:57:44;;;;;;;4.85;2.10;;;21.10;99.90;;;;;;4853531;29;20057;-77
2021/08/01 12:00:10;;;;;;;3.65;2.20;;;21.20;99.90;;;;;;4853333;29;20102;-77
2021/08/01 12:02:38;;;;;;;3.78;1.77;;;21.20;99.90;;;;;;4851668;29;20120;-77
2021/08/01 12:05:04;;;;;;;28.35;22.02;;;21.00;99.90;;;;;;4854037;29;20532;-76
2021/08/01 12:07:48;;;;;;;7.75;5.50;;;21.60;99.90;;;;;;4854424;29;20044;-77
2021/08/01 12:10:20;;;;;;;6.03;3.40;;;21.30;99.90;;;;;;4854085;29;20069;-76
2021/08/01 12:12:47;;;;;;;8.10;6.82;;;21.30;99.90;;;;;;4854804;29;20041;-76
2021/08/01 12:15:13;;;;;;;4.57;3.25;;;21.00;99.90;;;;;;4854608;29;20048;-77
2021/08/01 12:17:39;;;;;;;5.53;2.33;;;21.10;99.90;;;;;;4849981;29;20062;-77
2021/08/01 12:20:05;;;;;;;5.78;3.83;;;21.00;99.90;;;;;;4852376;29;20781;-77
2021/08/01 12:22:31;;;;;;;5.60;2.53;;;21.20;99.90;;;;;;4851888;29;20116;-77
2021/08/01 12:24:59;;;;;;;6.97;3.42;;;21.20;99.90;;;;;;4854241;29;20117;-78
2021/08/01 12:27:28;;;;;;;4.50;2.38;;;21.10;99.90;;;;;;4853760;29;20093;-78
2021/08/01 12:29:55;;;;;;;6.78;4.60;;;20.90;99.90;;;;;;4854471;29;20655;-78
2021/08/01 12:32:29;;;;;;;14.30;10.32;;;20.80;99.90;;;;;;4851312;29;20593;-78
2021/08/01 12:35:16;;;;;;;19.15;15.10;;;20.60;99.90;;;;;;4836098;29;20129;-78
2021/08/01 12:37:49;;;;;;;13.30;9.10;;;20.50;99.90;;;;;;4843118;29;20038;-78
2021/08/01 12:40:29;;;;;;;7.78;4.88;;;20.30;99.90;;;;;;4854846;29;20046;-78
2021/08/01 12:43:00;;;;;;;4.55;2.38;;;20.40;99.90;;;;;;4853578;29;20489;-77
2021/08/01 12:45:38;;;;;;;7.05;4.50;;;20.30;99.90;;;;;;4854226;29;20057;-78
2021/08/01 12:48:16;;;;;;;4.88;2.80;;;20.10;99.90;;;;;;4836845;29;20144;-77
2021/08/01 12:50:46;;;;;;;4.85;2.58;;;20.00;99.90;;;;;;4846870;29;20074;-78
2021/08/01 12:53:15;;;;;;;4.97;2.45;;;19.80;99.90;;;;;;4855253;29;20100;-79
2021/08/01 12:55:41;;;;;;;4.43;2.33;;;19.70;99.90;;;;;;4854685;29;20130;-78
2021/08/01 12:58:11;;;;;;;11.13;7.55;;;19.80;99.90;;;;;;4837333;29;20132;-79
2021/08/01 13:00:52;;;;;;;13.90;10.77;;;19.70;99.90;;;;;;4827504;29;20055;-78
2021/08/01 13:03:31;;;;;;;8.18;3.47;;;19.60;99.90;;;;;;4837342;29;20094;-77
2021/08/01 13:05:58;;;;;;;7.13;2.63;;;19.80;99.90;;;;;;4854055;29;20042;-79
2021/08/01 13:08:38;;;;;;;3.58;2.05;;;19.90;99.90;;;;;;4853519;29;20116;-76
2021/08/01 13:11:09;;;;;;;6.47;2.83;;;19.70;99.90;;;;;;4853372;29;20038;-75
2021/08/01 13:13:55;;;;;;;6.53;2.70;;;19.70;99.90;;;;;;4852508;29;20120;-76
2021/08/01 13:16:22;;;;;;;4.28;2.72;;;19.80;99.90;;;;;;4853361;29;20042;-77
2021/08/01 13:18:49;;;;;;;4.97;2.83;;;19.80;99.90;;;;;;4853176;29;20109;-77
2021/08/01 13:21:18;;;;;;;6.97;2.60;;;19.90;99.90;;;;;;4853095;29;20059;-77
2021/08/01 13:23:46;;;;;;;4.32;2.85;;;19.90;99.90;;;;;;4852229;29;20046;-77
2021/08/01 13:26:18;;;;;;;4.20;2.28;;;19.50;99.90;;;;;;4853673;29;20090;-75
2021/08/01 13:28:49;;;;;;;3.80;1.88;;;19.60;99.90;;;;;;4853226;29;20033;-76
2021/08/01 13:31:16;;;;;;;3.78;2.20;;;19.70;99.90;;;;;;4853224;29;20034;-76
2021/08/01 13:34:06;;;;;;;3.70;2.38;;;19.60;99.90;;;;;;4849043;29;20515;-76
2021/08/01 13:36:49;;;;;;;4.90;2.58;;;19.60;99.90;;;;;;4844379;29;20029;-76
2021/08/01 13:39:31;;;;;;;4.53;2.20;;;19.70;99.90;;;;;;4844326;29;20049;-76
2021/08/01 23:17:23;;;;;;;1.30;0.65;;;16.00;99.90;;;;;;4238038;29;20264;-78
2021/08/01 23:19:50;;;;;;;8.25;1.15;;;16.10;99.90;;;;;;4853762;29;20040;-80
2021/08/01 23:22:19;;;;;;;2.13;0.47;;;16.00;99.90;;;;;;4855042;29;21305;-80
2021/08/01 23:24:58;;;;;;;16.70;1.15;;;15.80;99.90;;;;;;4854800;29;20098;-80
2021/08/01 23:27:26;;;;;;;2.30;0.88;;;16.10;99.90;;;;;;4854373;29;20042;-79
2021/08/01 23:29:54;;;;;;;2.95;0.60;;;16.00;99.90;;;;;;4858232;29;20046;-80
2021/08/01 23:32:21;;;;;;;2.80;0.80;;;15.90;99.90;;;;;;4854775;29;20045;-80
2021/08/01 23:34:50;;;;;;;2.97;0.60;;;16.00;99.90;;;;;;4859115;29;20041;-80
2021/08/01 23:37:17;;;;;;;2.08;0.70;;;16.00;99.90;;;;;;4859076;29;20046;-81
2021/08/01 23:39:47;;;;;;;10.77;1.05;;;16.00;99.90;;;;;;4841384;29;20052;-82
2021/08/01 23:42:16;;;;;;;1.63;0.80;;;16.00;99.90;;;;;;4853507;29;20046;-80
2021/08/01 23:44:47;;;;;;;1.50;0.50;;;15.90;99.90;;;;;;4857493;29;20134;-80
2021/08/01 23:47:15;;;;;;;1.80;0.40;;;15.90;99.90;;;;;;4848206;29;20042;-81
2021/08/01 23:49:41;;;;;;;3.45;0.60;;;15.80;99.90;;;;;;4852128;29;20045;-81
2021/08/01 23:52:28;;;;;;;2.17;0.77;;;15.80;99.90;;;;;;4851940;29;20034;-80
2021/08/01 23:55:05;;;;;;;0.75;0.40;;;15.80;99.90;;;;;;4859239;29;20052;-80
2021/08/01 23:57:58;;;;;;;3.00;0.70;;;15.70;99.90;;;;;;4858503;29;20046;-80
